createdAt,value
2022-12-31T00:04:18.794Z,1.60
2022-12-31T00:04:52.439Z,1.40
2022-12-31T00:05:25.933Z,1.80
2022-12-31T00:05:59.517Z,1.80
2022-12-31T00:06:35.657Z,1.70
2022-12-31T00:07:09.140Z,1.90
2022-12-31T00:08:14.802Z,1.80
2022-12-31T00:08:49.289Z,1.70
2022-12-31T00:09:22.780Z,1.90
2022-12-31T00:09:56.231Z,1.90
2022-12-31T00:10:30.398Z,1.80
2022-12-31T00:11:04.062Z,1.90
2022-12-31T00:11:38.393Z,1.90
2022-12-31T00:12:12.066Z,1.90
2022-12-31T00:12:45.623Z,1.90
2022-12-31T00:13:19.197Z,1.80
2022-12-31T00:13:53.895Z,1.70
2022-12-31T00:14:27.432Z,1.80
2022-12-31T00:15:00.767Z,1.90
2022-12-31T00:15:35.128Z,1.80
2022-12-31T00:16:12.384Z,2.00
2022-12-31T00:16:46.119Z,1.70
2022-12-31T00:17:19.627Z,1.70
2022-12-31T00:17:55.729Z,1.60
2022-12-31T00:18:29.135Z,1.90
2022-12-31T00:19:04.017Z,1.80
2022-12-31T00:19:37.676Z,1.70
2022-12-31T00:20:11.448Z,1.60
2022-12-31T00:20:44.832Z,1.80
2022-12-31T00:21:19.643Z,1.60
2022-12-31T00:21:53.219Z,1.90
2022-12-31T00:22:26.688Z,1.80
2022-12-31T00:23:00.190Z,1.70
2022-12-31T00:23:33.596Z,2.10
2022-12-31T00:24:08.004Z,1.70
2022-12-31T00:24:41.599Z,1.90
2022-12-31T00:25:15.076Z,1.70
2022-12-31T00:25:48.483Z,1.90
2022-12-31T00:26:27.470Z,1.60
2022-12-31T00:27:00.947Z,1.70
2022-12-31T00:27:34.390Z,2.00
2022-12-31T00:28:07.908Z,1.70
2022-12-31T00:28:42.143Z,1.70
2022-12-31T00:29:15.659Z,1.60
2022-12-31T00:29:49.168Z,1.70
2022-12-31T00:30:22.597Z,1.60
2022-12-31T00:30:56.182Z,1.40
2022-12-31T00:31:32.629Z,1.60
2022-12-31T00:32:06.190Z,1.50
2022-12-31T00:32:39.655Z,1.60
2022-12-31T00:33:13.556Z,1.70
2022-12-31T00:33:47.555Z,1.50
2022-12-31T00:34:21.686Z,1.40
2022-12-31T00:34:55.193Z,1.60
2022-12-31T00:35:28.603Z,1.50
2022-12-31T00:36:07.184Z,1.40
2022-12-31T00:36:42.768Z,1.50
2022-12-31T00:37:16.410Z,1.80
2022-12-31T00:37:52.843Z,1.60
2022-12-31T00:38:26.257Z,1.70
2022-12-31T00:39:01.375Z,1.60
2022-12-31T00:39:34.819Z,1.60
2022-12-31T00:40:09.202Z,1.70
2022-12-31T00:40:42.590Z,1.50
2022-12-31T00:41:17.973Z,1.50
2022-12-31T00:41:51.360Z,1.70
2022-12-31T00:42:24.875Z,1.80
2022-12-31T00:42:58.337Z,1.60
2022-12-31T00:43:32.433Z,1.60
2022-12-31T00:44:06.154Z,1.50
2022-12-31T00:44:39.616Z,1.70
2022-12-31T00:45:13.125Z,1.70
2022-12-31T00:45:46.586Z,1.70
2022-12-31T00:46:21.112Z,1.80
2022-12-31T00:46:54.562Z,1.90
2022-12-31T00:47:28.126Z,1.50
2022-12-31T00:48:01.727Z,2.00
2022-12-31T00:48:35.884Z,1.90
2022-12-31T00:49:09.573Z,1.70
2022-12-31T00:49:43.101Z,2.10
2022-12-31T00:50:16.612Z,1.70
2022-12-31T00:50:50.114Z,1.90
2022-12-31T00:51:27.675Z,1.80
2022-12-31T00:52:01.309Z,1.80
2022-12-31T00:52:34.865Z,1.80
2022-12-31T00:53:08.331Z,1.90
2022-12-31T00:53:42.193Z,1.80
2022-12-31T00:54:15.770Z,2.00
2022-12-31T00:54:49.213Z,1.50
2022-12-31T00:55:22.654Z,1.60
2022-12-31T00:56:03.415Z,1.80
2022-12-31T00:56:36.799Z,1.90
2022-12-31T00:57:10.492Z,1.50
2022-12-31T00:57:44.067Z,1.70
2022-12-31T00:58:17.521Z,1.90
2022-12-31T00:58:51.645Z,1.90
2022-12-31T00:59:27.166Z,1.90
2022-12-31T01:00:00.660Z,2.00
2022-12-31T01:00:34.139Z,1.90
2022-12-31T01:01:15.136Z,2.00
2022-12-31T01:01:50.330Z,1.90
2022-12-31T01:02:23.983Z,2.00
2022-12-31T01:02:57.677Z,1.90
2022-12-31T01:03:31.339Z,1.90
2022-12-31T01:04:13.676Z,1.90
2022-12-31T01:04:47.044Z,1.80
2022-12-31T01:05:20.593Z,1.90
2022-12-31T01:05:59.434Z,1.90
2022-12-31T01:06:33.180Z,1.80
2022-12-31T01:07:06.680Z,2.00
2022-12-31T01:07:40.124Z,1.90
2022-12-31T01:08:13.595Z,1.70
2022-12-31T01:08:49.049Z,1.70
2022-12-31T01:09:22.505Z,2.00
2022-12-31T01:09:57.420Z,1.80
2022-12-31T01:10:49.693Z,2.10
2022-12-31T01:11:23.845Z,2.00
2022-12-31T01:11:57.309Z,1.90
2022-12-31T01:12:32.513Z,2.00
2022-12-31T01:13:12.655Z,2.00
2022-12-31T01:13:50.089Z,1.80
2022-12-31T01:14:23.516Z,1.70
2022-12-31T01:14:57.027Z,1.80
2022-12-31T01:15:38.103Z,2.00
2022-12-31T01:16:13.714Z,1.60
2022-12-31T01:16:50.688Z,1.80
2022-12-31T01:17:24.093Z,1.70
2022-12-31T01:17:57.597Z,1.80
2022-12-31T01:18:30.993Z,1.70
2022-12-31T01:19:09.314Z,1.70
2022-12-31T01:19:43.546Z,1.70
2022-12-31T01:20:17.029Z,1.80
2022-12-31T01:20:50.416Z,2.00
2022-12-31T01:21:23.862Z,1.80
2022-12-31T01:21:57.562Z,1.60
2022-12-31T01:22:30.975Z,1.80
2022-12-31T01:23:04.874Z,1.70
2022-12-31T01:23:39.026Z,1.70
2022-12-31T01:24:13.437Z,1.90
2022-12-31T01:24:46.904Z,2.00
2022-12-31T01:25:20.301Z,1.60
2022-12-31T01:25:53.788Z,1.70
2022-12-31T01:26:28.177Z,1.70
2022-12-31T01:27:01.839Z,1.60
2022-12-31T01:27:35.401Z,1.60
2022-12-31T01:28:09.175Z,1.50
2022-12-31T01:28:43.001Z,1.70
2022-12-31T01:29:17.267Z,1.50
2022-12-31T01:29:50.897Z,1.70
2022-12-31T01:30:24.385Z,1.50
2022-12-31T01:30:58.143Z,1.50
2022-12-31T01:31:34.034Z,1.30
2022-12-31T01:32:07.488Z,1.50
2022-12-31T01:32:40.909Z,1.60
2022-12-31T01:33:14.280Z,1.50
2022-12-31T01:33:48.322Z,1.60
2022-12-31T01:34:21.980Z,1.60
2022-12-31T01:34:55.470Z,1.50
2022-12-31T01:35:28.886Z,1.80
2022-12-31T01:36:11.619Z,1.70
2022-12-31T01:36:44.995Z,1.60
2022-12-31T01:37:18.441Z,1.60
2022-12-31T01:37:51.998Z,1.60
2022-12-31T01:38:25.465Z,1.70
2022-12-31T01:39:00.976Z,1.50
2022-12-31T01:39:34.458Z,1.70
2022-12-31T01:40:08.204Z,1.70
2022-12-31T01:40:42.144Z,2.00
2022-12-31T01:41:26.492Z,1.70
2022-12-31T01:41:59.884Z,1.70
2022-12-31T01:42:33.272Z,1.70
2022-12-31T01:43:18.901Z,1.80
2022-12-31T01:43:59.226Z,2.10
2022-12-31T01:44:32.850Z,1.90
2022-12-31T01:45:12.603Z,2.00
2022-12-31T01:45:53.277Z,1.80
2022-12-31T01:46:37.528Z,2.00
2022-12-31T01:47:18.170Z,2.30
2022-12-31T01:47:57.431Z,2.10
2022-12-31T01:48:30.872Z,2.10
2022-12-31T01:49:19.697Z,2.20
2022-12-31T01:50:03.711Z,2.10
2022-12-31T01:50:40.060Z,2.20
2022-12-31T01:51:13.963Z,2.50
2022-12-31T01:51:53.135Z,2.70
2022-12-31T01:52:33.099Z,2.60
2022-12-31T01:53:08.776Z,2.50
2022-12-31T01:53:43.713Z,2.50
2022-12-31T01:54:22.089Z,2.90
2022-12-31T01:55:06.426Z,2.40
2022-12-31T01:55:48.743Z,2.60
2022-12-31T01:56:23.547Z,2.70
2022-12-31T01:56:57.683Z,2.70
2022-12-31T01:57:32.025Z,3.10
2022-12-31T01:58:11.942Z,3.00
2022-12-31T01:58:49.163Z,2.70
2022-12-31T01:59:27.510Z,3.00
2022-12-31T02:00:02.093Z,3.30
2022-12-31T02:00:38.309Z,2.90
2022-12-31T02:01:17.689Z,3.10
2022-12-31T02:01:54.557Z,3.10
2022-12-31T02:02:28.423Z,2.50
2022-12-31T02:03:03.859Z,2.70
2022-12-31T02:03:37.637Z,3.00
2022-12-31T02:04:13.688Z,2.90
2022-12-31T02:04:49.247Z,3.00
2022-12-31T02:05:48.737Z,2.90
2022-12-31T02:06:29.365Z,2.70
2022-12-31T02:07:05.552Z,2.60
2022-12-31T02:07:39.919Z,2.90
2022-12-31T02:08:13.519Z,3.00
2022-12-31T02:08:47.724Z,2.90
2022-12-31T02:09:21.366Z,3.00
2022-12-31T02:09:54.816Z,2.60
2022-12-31T02:10:28.251Z,2.80
2022-12-31T02:11:01.827Z,2.70
2022-12-31T02:11:38.187Z,2.80
2022-12-31T02:12:12.032Z,2.70
2022-12-31T02:12:46.322Z,2.80
2022-12-31T02:13:19.801Z,2.50
2022-12-31T02:13:58.658Z,2.50
2022-12-31T02:14:44.052Z,2.40
2022-12-31T02:16:09.110Z,2.10
2022-12-31T02:16:48.292Z,2.10
2022-12-31T02:17:59.397Z,2.20
2022-12-31T02:18:58.943Z,1.90
2022-12-31T02:19:41.055Z,2.20
2022-12-31T02:20:33.237Z,2.30
2022-12-31T02:21:30.575Z,2.40
2022-12-31T02:22:22.983Z,2.20
2022-12-31T02:23:02.027Z,2.40
2022-12-31T02:23:45.174Z,2.20
2022-12-31T02:24:37.337Z,2.20
2022-12-31T02:25:35.951Z,2.40
2022-12-31T02:26:21.414Z,2.40
2022-12-31T02:27:19.434Z,2.50
2022-12-31T02:28:18.112Z,2.30
2022-12-31T02:29:08.525Z,2.00
2022-12-31T02:30:09.442Z,2.40
2022-12-31T02:30:47.583Z,2.30
2022-12-31T02:31:37.421Z,2.40
2022-12-31T02:32:32.788Z,2.20
2022-12-31T02:33:35.737Z,2.40
2022-12-31T02:34:27.699Z,2.50
2022-12-31T02:35:08.670Z,2.60
2022-12-31T02:35:49.716Z,2.70
2022-12-31T02:36:28.121Z,2.60
2022-12-31T02:37:05.152Z,2.80
2022-12-31T02:37:42.084Z,2.70
2022-12-31T02:38:26.854Z,3.20
2022-12-31T02:39:03.047Z,3.30
2022-12-31T02:39:37.050Z,2.80
2022-12-31T02:40:14.959Z,3.20
2022-12-31T02:40:49.130Z,3.10
2022-12-31T02:42:01.266Z,3.10
2022-12-31T02:42:34.714Z,2.70
2022-12-31T02:43:08.193Z,3.00
2022-12-31T02:43:47.668Z,3.30
2022-12-31T02:44:26.819Z,3.30
2022-12-31T02:45:00.229Z,3.40
2022-12-31T02:45:47.656Z,3.00
2022-12-31T02:46:29.726Z,3.50
2022-12-31T02:47:09.107Z,2.90
2022-12-31T02:47:58.531Z,2.90
2022-12-31T02:48:37.991Z,3.00
2022-12-31T02:51:50.678Z,2.60
2022-12-31T02:52:53.563Z,2.50
2022-12-31T02:54:11.893Z,2.90
2022-12-31T02:55:03.776Z,2.40
2022-12-31T02:55:49.773Z,2.40
2022-12-31T02:56:31.662Z,2.80
2022-12-31T02:57:20.648Z,3.10
2022-12-31T02:58:12.147Z,2.40
2022-12-31T02:59:15.841Z,2.60
2022-12-31T03:00:22.245Z,2.60
2022-12-31T03:01:17.189Z,2.20
2022-12-31T03:02:16.294Z,2.60
2022-12-31T03:02:53.041Z,2.50
2022-12-31T03:03:27.812Z,2.40
2022-12-31T03:04:21.542Z,2.60
2022-12-31T03:04:57.097Z,2.40
2022-12-31T03:05:34.666Z,2.50
2022-12-31T03:06:09.782Z,2.30
2022-12-31T03:06:43.421Z,2.70
2022-12-31T03:07:23.422Z,2.30
2022-12-31T03:07:56.880Z,2.40
2022-12-31T03:08:30.723Z,2.00
2022-12-31T03:09:13.214Z,2.30
2022-12-31T03:09:46.957Z,2.50
2022-12-31T03:10:20.548Z,2.20
2022-12-31T03:10:54.144Z,2.30
2022-12-31T03:11:46.213Z,2.80
2022-12-31T03:12:41.429Z,2.40
2022-12-31T03:13:14.789Z,2.20
2022-12-31T03:13:48.363Z,2.30
2022-12-31T03:14:21.728Z,2.30
2022-12-31T03:14:55.285Z,2.40
2022-12-31T03:15:31.589Z,2.50
2022-12-31T03:16:04.975Z,2.60
2022-12-31T03:16:38.439Z,2.40
2022-12-31T03:17:12.540Z,2.60
2022-12-31T03:17:53.515Z,2.30
2022-12-31T03:18:46.979Z,2.60
2022-12-31T03:19:39.040Z,2.70
2022-12-31T03:20:31.301Z,2.30
2022-12-31T03:21:31.535Z,2.20
2022-12-31T03:22:23.469Z,2.30
2022-12-31T03:22:56.941Z,1.90
2022-12-31T03:23:33.782Z,2.20
2022-12-31T03:24:26.308Z,2.50
2022-12-31T03:25:34.177Z,2.10
2022-12-31T03:26:10.929Z,2.00
2022-12-31T03:26:44.303Z,2.10
2022-12-31T03:27:17.636Z,2.10
2022-12-31T03:27:51.299Z,2.20
2022-12-31T03:28:27.805Z,2.20
2022-12-31T03:29:01.203Z,2.30
2022-12-31T03:29:34.677Z,2.20
2022-12-31T03:30:09.291Z,2.20
2022-12-31T03:30:45.501Z,2.30
2022-12-31T03:31:19.034Z,2.40
2022-12-31T03:31:52.456Z,2.30
2022-12-31T03:32:26.028Z,2.50
2022-12-31T03:32:59.951Z,2.30
2022-12-31T03:33:35.978Z,2.40
2022-12-31T03:34:09.646Z,2.20
2022-12-31T03:34:43.054Z,2.10
2022-12-31T03:35:19.424Z,2.20
2022-12-31T03:35:53.813Z,2.20
2022-12-31T03:36:29.877Z,1.90
2022-12-31T03:37:03.430Z,2.00
2022-12-31T03:37:36.797Z,2.10
2022-12-31T03:38:10.277Z,2.20
2022-12-31T03:38:46.367Z,2.30
2022-12-31T03:39:21.934Z,2.00
2022-12-31T03:39:55.341Z,2.30
2022-12-31T03:40:30.390Z,2.30
2022-12-31T03:41:03.904Z,2.10
2022-12-31T03:41:37.384Z,2.00
2022-12-31T03:42:10.715Z,2.00
2022-12-31T03:42:44.205Z,1.90
2022-12-31T03:43:19.490Z,2.30
2022-12-31T03:43:53.109Z,2.10
2022-12-31T03:44:26.512Z,1.90
2022-12-31T03:45:00.003Z,2.10
2022-12-31T03:45:34.780Z,2.10
2022-12-31T03:46:09.430Z,2.00
2022-12-31T03:46:43.023Z,2.10
2022-12-31T03:47:16.434Z,1.90
2022-12-31T03:47:49.987Z,2.20
2022-12-31T03:48:23.973Z,1.90
2022-12-31T03:48:57.449Z,1.90
2022-12-31T03:49:30.801Z,2.10
2022-12-31T03:50:05.802Z,2.30
2022-12-31T03:50:39.220Z,1.80
2022-12-31T03:51:12.811Z,1.90
2022-12-31T03:51:46.201Z,1.80
2022-12-31T03:52:19.524Z,1.70
2022-12-31T03:52:52.918Z,1.70
2022-12-31T03:53:26.353Z,1.80
2022-12-31T03:53:59.687Z,1.80
2022-12-31T03:54:33.506Z,1.70
2022-12-31T03:55:08.000Z,1.70
2022-12-31T03:55:41.505Z,1.70
2022-12-31T03:56:14.862Z,1.70
2022-12-31T03:56:49.625Z,1.90
2022-12-31T03:57:24.268Z,1.90
2022-12-31T03:57:57.661Z,1.70
2022-12-31T03:58:31.060Z,1.80
2022-12-31T03:59:04.427Z,1.70
2022-12-31T03:59:39.306Z,1.70
2022-12-31T04:00:15.599Z,1.80
2022-12-31T04:00:49.388Z,1.60
2022-12-31T04:01:24.765Z,1.60
2022-12-31T04:01:58.508Z,1.80
2022-12-31T04:02:32.499Z,1.50
2022-12-31T04:03:05.981Z,1.80
2022-12-31T04:03:39.504Z,1.80
2022-12-31T04:04:12.888Z,1.50
2022-12-31T04:04:46.587Z,1.70
2022-12-31T04:05:21.350Z,1.60
2022-12-31T04:05:56.191Z,1.70
2022-12-31T04:06:29.594Z,1.70
2022-12-31T04:07:03.600Z,1.80
2022-12-31T04:07:37.799Z,1.60
2022-12-31T04:08:11.370Z,1.30
2022-12-31T04:08:44.816Z,1.50
2022-12-31T04:09:20.250Z,1.60
2022-12-31T04:09:53.685Z,1.50
2022-12-31T04:10:27.322Z,1.60
2022-12-31T04:11:00.881Z,1.40
2022-12-31T04:11:36.157Z,1.50
2022-12-31T04:12:09.480Z,1.60
2022-12-31T04:12:43.679Z,1.40
2022-12-31T04:13:17.113Z,1.60
2022-12-31T04:13:50.487Z,1.50
2022-12-31T04:14:23.963Z,1.40
2022-12-31T04:14:57.673Z,1.40
2022-12-31T04:15:31.191Z,1.40
2022-12-31T04:16:05.099Z,1.50
2022-12-31T04:16:38.627Z,1.40
2022-12-31T04:17:12.546Z,1.30
2022-12-31T04:17:46.741Z,1.30
2022-12-31T04:18:20.406Z,1.60
2022-12-31T04:18:53.785Z,1.40
2022-12-31T04:19:27.320Z,1.40
2022-12-31T04:20:00.892Z,1.40
2022-12-31T04:20:34.395Z,1.60
2022-12-31T04:21:07.865Z,1.50
2022-12-31T04:21:41.268Z,1.40
2022-12-31T04:22:14.729Z,1.30
2022-12-31T04:22:48.095Z,1.30
2022-12-31T04:23:21.505Z,1.50
2022-12-31T04:23:55.945Z,1.50
2022-12-31T04:24:29.459Z,1.20
2022-12-31T04:25:02.963Z,1.30
2022-12-31T04:25:36.597Z,1.50
2022-12-31T04:26:10.005Z,1.40
2022-12-31T04:26:44.272Z,1.30
2022-12-31T04:27:17.699Z,1.30
2022-12-31T04:27:51.100Z,1.30
2022-12-31T04:28:24.415Z,1.20
2022-12-31T04:28:57.878Z,1.10
2022-12-31T04:29:31.321Z,1.90
2022-12-31T04:30:05.165Z,1.40
2022-12-31T04:30:38.580Z,1.50
2022-12-31T04:31:12.260Z,1.30
2022-12-31T04:31:47.728Z,1.20
2022-12-31T04:32:21.154Z,1.30
2022-12-31T04:32:54.492Z,1.20
2022-12-31T04:33:28.036Z,1.30
2022-12-31T04:34:01.945Z,1.10
2022-12-31T04:34:35.975Z,1.30
2022-12-31T04:35:10.791Z,1.30
2022-12-31T04:35:44.710Z,1.00
2022-12-31T04:36:18.126Z,1.30
2022-12-31T04:36:51.587Z,1.20
2022-12-31T04:37:25.069Z,1.10
2022-12-31T04:37:58.406Z,1.30
2022-12-31T04:38:32.401Z,1.20
2022-12-31T04:39:05.858Z,1.20
2022-12-31T04:39:39.951Z,1.20
2022-12-31T04:40:13.362Z,1.10
2022-12-31T04:41:05.189Z,1.10
2022-12-31T04:41:38.525Z,1.20
2022-12-31T04:42:11.939Z,1.30
2022-12-31T04:42:45.291Z,1.10
2022-12-31T04:43:18.676Z,1.20
2022-12-31T04:43:54.424Z,1.20
2022-12-31T04:44:27.886Z,1.10
2022-12-31T04:45:01.222Z,1.20
2022-12-31T04:45:35.033Z,1.20
2022-12-31T04:46:08.662Z,1.40
2022-12-31T04:46:42.151Z,1.10
2022-12-31T04:47:21.755Z,1.20
2022-12-31T04:47:56.832Z,1.20
2022-12-31T04:48:30.266Z,1.10
2022-12-31T04:49:04.121Z,1.30
2022-12-31T04:49:37.581Z,1.40
2022-12-31T04:50:10.897Z,1.30
2022-12-31T04:50:46.320Z,1.10
2022-12-31T04:51:21.083Z,1.20
2022-12-31T04:51:54.527Z,1.20
2022-12-31T04:52:27.942Z,1.20
2022-12-31T04:53:01.396Z,1.20
2022-12-31T04:53:34.854Z,1.20
2022-12-31T04:54:08.236Z,1.30
2022-12-31T04:54:41.555Z,1.20
2022-12-31T04:55:14.938Z,1.20
2022-12-31T04:55:48.295Z,1.30
2022-12-31T04:56:22.031Z,1.20
2022-12-31T04:56:55.532Z,1.30
2022-12-31T04:57:28.869Z,1.30
2022-12-31T04:58:05.100Z,1.40
2022-12-31T04:58:39.558Z,1.20
2022-12-31T04:59:13.179Z,1.30
2022-12-31T04:59:46.512Z,1.40
2022-12-31T05:00:20.083Z,1.20
2022-12-31T05:00:54.800Z,1.30
2022-12-31T05:01:28.307Z,1.30
2022-12-31T05:02:01.843Z,1.40
2022-12-31T05:02:35.515Z,1.30
2022-12-31T05:03:11.455Z,1.30
2022-12-31T05:03:44.989Z,1.30
2022-12-31T05:04:18.419Z,1.20
2022-12-31T05:04:51.753Z,1.30
2022-12-31T05:05:25.163Z,1.60
2022-12-31T05:06:07.169Z,1.30
2022-12-31T05:06:40.473Z,1.30
2022-12-31T05:07:13.864Z,1.30
2022-12-31T05:07:47.145Z,1.40
2022-12-31T05:08:20.961Z,1.50
2022-12-31T05:08:54.429Z,1.50
2022-12-31T05:09:28.495Z,1.30
2022-12-31T05:10:02.249Z,1.60
2022-12-31T05:10:36.401Z,1.40
2022-12-31T05:11:10.709Z,1.60
2022-12-31T05:11:44.225Z,1.40
2022-12-31T05:12:17.606Z,1.50
2022-12-31T05:12:51.051Z,1.60
2022-12-31T05:13:28.091Z,1.40
2022-12-31T05:14:06.599Z,1.40
2022-12-31T05:14:39.979Z,1.40
2022-12-31T05:15:13.464Z,1.60
2022-12-31T05:15:47.832Z,1.70
2022-12-31T05:16:21.374Z,1.70
2022-12-31T05:16:55.224Z,1.80
2022-12-31T05:17:28.557Z,1.70
2022-12-31T05:18:02.297Z,1.70
2022-12-31T05:18:36.692Z,1.80
2022-12-31T05:19:10.782Z,1.50
2022-12-31T05:19:44.271Z,1.40
2022-12-31T05:20:17.790Z,1.40
2022-12-31T05:20:51.219Z,1.70
2022-12-31T05:21:24.556Z,1.90
2022-12-31T05:22:16.474Z,1.60
2022-12-31T05:22:49.907Z,1.60
2022-12-31T05:23:23.779Z,1.70
2022-12-31T05:23:57.505Z,1.80
2022-12-31T05:24:30.985Z,1.70
2022-12-31T05:25:04.749Z,1.40
2022-12-31T05:25:38.342Z,1.70
2022-12-31T05:26:11.686Z,1.80
2022-12-31T05:26:45.176Z,1.70
2022-12-31T05:27:18.705Z,1.70
2022-12-31T05:27:52.039Z,1.80
2022-12-31T05:28:25.755Z,1.70
2022-12-31T05:29:00.605Z,1.80
2022-12-31T05:29:34.122Z,1.70
2022-12-31T05:30:08.301Z,1.90
2022-12-31T05:30:42.310Z,1.70
2022-12-31T05:31:15.826Z,1.80
2022-12-31T05:31:49.236Z,1.80
2022-12-31T05:32:22.709Z,1.80
2022-12-31T05:32:56.326Z,1.70
2022-12-31T05:33:29.845Z,2.00
2022-12-31T05:34:03.340Z,2.00
2022-12-31T05:34:36.722Z,1.80
2022-12-31T05:35:10.211Z,2.10
2022-12-31T05:35:43.709Z,2.00
2022-12-31T05:36:17.159Z,2.00
2022-12-31T05:36:50.525Z,2.00
2022-12-31T05:37:24.014Z,2.00
2022-12-31T05:37:57.546Z,2.00
2022-12-31T05:38:30.981Z,2.00
2022-12-31T05:39:04.603Z,2.20
2022-12-31T05:39:37.984Z,2.00
2022-12-31T05:40:12.476Z,2.00
2022-12-31T05:40:45.870Z,2.00
2022-12-31T05:41:20.778Z,2.20
2022-12-31T05:41:54.216Z,2.30
2022-12-31T05:42:27.800Z,2.50
2022-12-31T05:43:01.857Z,2.20
2022-12-31T05:43:36.622Z,2.10
2022-12-31T05:44:11.012Z,2.20
2022-12-31T05:44:44.619Z,2.40
2022-12-31T05:45:18.737Z,2.10
2022-12-31T05:45:52.117Z,2.00
2022-12-31T05:46:25.603Z,2.20
2022-12-31T05:46:58.997Z,2.30
2022-12-31T05:47:32.765Z,2.10
2022-12-31T05:48:06.824Z,2.20
2022-12-31T05:48:40.193Z,2.00
2022-12-31T05:49:13.632Z,2.10
2022-12-31T05:49:47.081Z,2.00
2022-12-31T05:50:20.451Z,2.00
2022-12-31T05:51:01.191Z,2.00
2022-12-31T05:51:34.518Z,1.90
2022-12-31T05:52:08.371Z,2.30
2022-12-31T05:52:47.411Z,2.10
2022-12-31T05:53:21.254Z,1.90
2022-12-31T05:53:54.708Z,2.00
2022-12-31T05:54:28.375Z,1.90
2022-12-31T05:55:02.151Z,2.00
2022-12-31T05:55:35.536Z,2.10
2022-12-31T05:56:09.022Z,2.10
2022-12-31T05:56:42.386Z,2.10
2022-12-31T05:57:15.909Z,2.10
2022-12-31T05:57:49.303Z,1.90
2022-12-31T05:58:22.840Z,1.90
2022-12-31T05:58:56.460Z,1.70
2022-12-31T05:59:30.065Z,2.00
2022-12-31T06:00:06.327Z,2.10
2022-12-31T06:00:46.745Z,2.00
2022-12-31T06:01:20.358Z,2.10
2022-12-31T06:01:54.231Z,2.00
2022-12-31T06:02:27.615Z,2.00
2022-12-31T06:03:01.106Z,2.00
2022-12-31T06:03:34.686Z,2.00
2022-12-31T06:04:08.171Z,2.30
2022-12-31T06:04:41.753Z,2.10
2022-12-31T06:05:15.070Z,2.00
2022-12-31T06:05:48.494Z,2.10
2022-12-31T06:06:22.008Z,2.20
2022-12-31T06:06:55.533Z,1.80
2022-12-31T06:07:29.091Z,2.20
2022-12-31T06:08:02.552Z,2.10
2022-12-31T06:08:35.932Z,2.00
2022-12-31T06:09:09.741Z,2.20
2022-12-31T06:09:43.133Z,2.10
2022-12-31T06:10:16.647Z,2.00
2022-12-31T06:10:50.486Z,2.30
2022-12-31T06:11:24.099Z,2.00
2022-12-31T06:11:58.238Z,2.30
2022-12-31T06:12:31.635Z,2.30
2022-12-31T06:13:05.371Z,2.20
2022-12-31T06:13:38.687Z,2.60
2022-12-31T06:14:13.134Z,2.60
2022-12-31T06:14:46.473Z,2.40
2022-12-31T06:15:19.921Z,2.20
2022-12-31T06:15:53.773Z,2.60
2022-12-31T06:16:27.430Z,2.40
2022-12-31T06:17:01.036Z,2.30
2022-12-31T06:17:34.435Z,2.50
2022-12-31T06:18:08.121Z,2.40
2022-12-31T06:18:41.639Z,2.40
2022-12-31T06:19:15.085Z,2.30
2022-12-31T06:19:48.960Z,2.60
2022-12-31T06:20:22.339Z,2.80
2022-12-31T06:20:58.602Z,2.40
2022-12-31T06:21:32.164Z,2.40
2022-12-31T06:22:05.541Z,2.80
2022-12-31T06:22:38.954Z,2.60
2022-12-31T06:23:12.301Z,2.70
2022-12-31T06:23:46.281Z,2.40
2022-12-31T06:24:19.741Z,2.50
2022-12-31T06:24:53.097Z,2.60
2022-12-31T06:25:26.535Z,2.30
2022-12-31T06:26:05.132Z,2.10
2022-12-31T06:26:38.538Z,2.40
2022-12-31T06:27:11.996Z,2.30
2022-12-31T06:27:45.496Z,2.40
2022-12-31T06:28:20.600Z,2.40
2022-12-31T06:28:54.596Z,2.40
2022-12-31T06:29:28.045Z,1.90
2022-12-31T06:30:01.440Z,2.60
2022-12-31T06:30:34.842Z,2.20
2022-12-31T06:31:12.117Z,2.10
2022-12-31T06:31:45.611Z,2.10
2022-12-31T06:32:18.958Z,2.00
2022-12-31T06:32:52.378Z,2.20
2022-12-31T06:33:25.925Z,2.10
2022-12-31T06:33:59.391Z,1.80
2022-12-31T06:34:32.865Z,1.90
2022-12-31T06:35:07.333Z,1.90
2022-12-31T06:35:40.698Z,1.70
2022-12-31T06:36:15.867Z,1.80
2022-12-31T06:36:50.427Z,2.10
2022-12-31T06:37:23.959Z,1.90
2022-12-31T06:37:57.383Z,1.90
2022-12-31T06:38:33.873Z,1.70
2022-12-31T06:39:07.336Z,2.20
2022-12-31T06:39:40.779Z,2.00
2022-12-31T06:40:14.453Z,1.70
2022-12-31T06:40:47.785Z,1.70
2022-12-31T06:41:22.191Z,1.80
2022-12-31T06:41:55.756Z,1.70
2022-12-31T06:42:31.293Z,1.90
2022-12-31T06:43:04.725Z,1.90
2022-12-31T06:43:39.608Z,1.90
2022-12-31T06:44:13.102Z,2.10
2022-12-31T06:44:47.860Z,2.50
2022-12-31T06:45:21.309Z,2.00
2022-12-31T06:45:54.876Z,2.30
2022-12-31T06:46:29.213Z,1.90
2022-12-31T06:47:04.502Z,1.90
2022-12-31T06:47:38.063Z,2.00
2022-12-31T06:48:11.501Z,1.90
2022-12-31T06:48:45.809Z,1.80
2022-12-31T06:49:21.806Z,1.70
2022-12-31T06:49:55.202Z,1.60
2022-12-31T06:50:28.716Z,1.80
2022-12-31T06:51:10.620Z,1.70
2022-12-31T06:51:47.999Z,1.70
2022-12-31T06:52:21.912Z,1.60
2022-12-31T06:52:55.373Z,1.60
2022-12-31T06:53:28.904Z,1.50
2022-12-31T06:54:02.457Z,1.30
2022-12-31T06:54:36.199Z,1.60
2022-12-31T06:55:10.416Z,1.30
2022-12-31T06:55:46.954Z,1.40
2022-12-31T06:56:26.501Z,1.40
2022-12-31T06:57:04.474Z,1.40
2022-12-31T06:57:38.194Z,1.60
2022-12-31T06:58:15.962Z,1.40
2022-12-31T06:58:50.200Z,1.20
2022-12-31T06:59:26.953Z,1.50
2022-12-31T07:00:00.599Z,1.50
2022-12-31T07:00:34.226Z,1.30
2022-12-31T07:01:26.004Z,1.40
2022-12-31T07:02:13.548Z,1.20
2022-12-31T07:03:13.598Z,1.40
2022-12-31T07:03:59.795Z,1.40
2022-12-31T07:04:42.408Z,1.10
2022-12-31T07:05:58.109Z,1.50
2022-12-31T07:06:44.310Z,1.30
2022-12-31T07:07:24.179Z,1.10
2022-12-31T07:08:27.784Z,1.20
2022-12-31T07:09:16.896Z,1.30
2022-12-31T07:10:00.740Z,1.30
2022-12-31T07:10:41.669Z,1.30
2022-12-31T07:11:26.581Z,1.50
2022-12-31T07:12:16.060Z,1.50
2022-12-31T07:13:20.451Z,1.30
2022-12-31T07:13:59.719Z,1.40
2022-12-31T07:14:52.178Z,1.30
2022-12-31T07:15:42.029Z,1.40
2022-12-31T07:17:00.935Z,1.40
2022-12-31T07:17:34.259Z,1.40
2022-12-31T07:18:35.634Z,1.20
2022-12-31T07:19:37.478Z,1.20
2022-12-31T07:20:14.200Z,1.20
2022-12-31T07:20:47.914Z,1.20
2022-12-31T07:21:33.924Z,1.40
2022-12-31T07:22:14.345Z,1.30
2022-12-31T07:22:48.466Z,1.20
2022-12-31T07:23:22.194Z,1.40
2022-12-31T07:23:55.970Z,1.30
2022-12-31T07:24:29.665Z,1.40
2022-12-31T07:25:04.165Z,1.30
2022-12-31T07:25:41.359Z,1.40
2022-12-31T07:26:44.612Z,1.50
2022-12-31T07:27:35.140Z,1.30
2022-12-31T07:28:33.649Z,1.30
2022-12-31T07:29:23.410Z,1.40
2022-12-31T07:30:02.359Z,1.20
2022-12-31T07:31:07.082Z,1.30
2022-12-31T07:32:05.740Z,1.20
2022-12-31T07:33:03.646Z,1.20
2022-12-31T07:33:37.041Z,1.40
2022-12-31T07:34:32.280Z,1.50
2022-12-31T07:35:35.624Z,1.20
2022-12-31T07:36:18.305Z,1.30
2022-12-31T07:37:13.366Z,1.40
2022-12-31T07:38:02.667Z,1.30
2022-12-31T07:38:49.520Z,1.40
2022-12-31T07:39:41.904Z,1.40
2022-12-31T07:40:30.352Z,1.20
2022-12-31T07:41:17.437Z,1.30
2022-12-31T07:41:53.716Z,1.50
2022-12-31T07:42:47.770Z,1.50
2022-12-31T07:43:58.639Z,1.40
2022-12-31T07:44:32.010Z,1.30
2022-12-31T07:45:27.082Z,1.50
2022-12-31T07:46:31.082Z,1.20
2022-12-31T07:47:13.429Z,1.50
2022-12-31T07:47:47.000Z,1.70
2022-12-31T07:48:26.196Z,1.60
2022-12-31T07:49:00.209Z,1.50
2022-12-31T07:49:34.495Z,2.00
2022-12-31T07:50:15.278Z,1.30
2022-12-31T07:50:49.167Z,1.40
2022-12-31T07:51:22.934Z,1.60
2022-12-31T07:51:56.626Z,1.70
2022-12-31T07:52:30.212Z,1.60
2022-12-31T07:53:04.065Z,1.60
2022-12-31T07:53:38.247Z,1.40
2022-12-31T07:54:14.125Z,1.50
2022-12-31T07:54:48.100Z,1.70
2022-12-31T07:55:21.561Z,1.60
2022-12-31T07:56:00.764Z,1.90
2022-12-31T07:56:34.413Z,1.50
2022-12-31T07:57:07.783Z,1.90
2022-12-31T07:58:01.425Z,2.00
2022-12-31T07:58:40.831Z,1.90
2022-12-31T07:59:41.855Z,2.20
2022-12-31T08:00:16.054Z,2.20
2022-12-31T08:00:53.221Z,2.20
2022-12-31T08:02:12.235Z,2.40
2022-12-31T08:03:01.638Z,2.30
2022-12-31T08:03:55.212Z,2.70
2022-12-31T08:04:31.547Z,2.30
2022-12-31T08:05:17.037Z,2.50
2022-12-31T08:06:12.583Z,3.10
2022-12-31T08:06:48.536Z,2.90
2022-12-31T08:07:43.660Z,2.60
2022-12-31T08:08:41.242Z,2.40
2022-12-31T08:09:20.707Z,2.60
2022-12-31T08:10:18.219Z,2.40
2022-12-31T08:11:03.703Z,2.40
2022-12-31T08:11:40.427Z,2.50
2022-12-31T08:12:15.364Z,2.90
2022-12-31T08:12:50.468Z,3.00
2022-12-31T08:13:24.300Z,2.40
2022-12-31T08:14:01.725Z,2.80
2022-12-31T08:14:43.295Z,2.60
2022-12-31T08:15:19.279Z,2.30
2022-12-31T08:15:53.090Z,2.30
2022-12-31T08:16:27.016Z,2.30
2022-12-31T08:17:00.741Z,2.20
2022-12-31T08:17:34.298Z,2.40
2022-12-31T08:18:08.527Z,2.60
2022-12-31T08:18:42.168Z,2.60
2022-12-31T08:19:26.095Z,2.30
2022-12-31T08:19:59.820Z,2.30
2022-12-31T08:20:36.572Z,2.00
2022-12-31T08:22:07.275Z,2.40
2022-12-31T08:23:14.835Z,2.00
2022-12-31T08:24:09.947Z,1.80